sensor_id;sensor_type;location;lat;lon;timestamp;P1;durP1;ratioP1;P2;durP2;ratioP2
38629;SDS011;24384;51.988;4.644;2023-07-28T00:01:01;15.50;;;7.55;;
38629;SDS011;24384;51.988;4.644;2023-07-28T00:03:26;15.45;;;7.30;;
38629;SDS011;24384;51.988;4.644;2023-07-28T00:05:52;20.00;;;7.95;;
38629;SDS011;24384;51.988;4.644;2023-07-28T00:08:17;11.18;;;6.57;;
38629;SDS011;24384;51.988;4.644;2023-07-28T00:10:42;16.40;;;7.18;;
38629;SDS011;24384;51.988;4.644;2023-07-28T00:13:08;16.10;;;7.22;;
38629;SDS011;24384;51.988;4.644;2023-07-28T00:15:34;11.75;;;7.32;;
38629;SDS011;24384;51.988;4.644;2023-07-28T00:17:59;13.15;;;7.90;;
38629;SDS011;24384;51.988;4.644;2023-07-28T00:20:27;18.42;;;8.10;;
38629;SDS011;24384;51.988;4.644;2023-07-28T00:22:54;18.45;;;8.05;;
38629;SDS011;24384;51.988;4.644;2023-07-28T00:25:20;17.75;;;7.78;;
38629;SDS011;24384;51.988;4.644;2023-07-28T00:27:45;15.82;;;7.72;;
38629;SDS011;24384;51.988;4.644;2023-07-28T00:30:10;17.20;;;7.88;;
38629;SDS011;24384;51.988;4.644;2023-07-28T00:32:36;16.60;;;8.10;;
38629;SDS011;24384;51.988;4.644;2023-07-28T00:35:01;23.67;;;7.95;;
38629;SDS011;24384;51.988;4.644;2023-07-28T00:37:27;18.85;;;9.15;;
38629;SDS011;24384;51.988;4.644;2023-07-28T00:39:53;25.00;;;9.55;;
38629;SDS011;24384;51.988;4.644;2023-07-28T00:42:19;16.55;;;7.95;;
38629;SDS011;24384;51.988;4.644;2023-07-28T00:44:45;19.58;;;9.07;;
38629;SDS011;24384;51.988;4.644;2023-07-28T00:47:11;16.25;;;10.23;;
38629;SDS011;24384;51.988;4.644;2023-07-28T00:49:37;20.45;;;10.18;;
38629;SDS011;24384;51.988;4.644;2023-07-28T00:52:04;20.23;;;9.10;;
38629;SDS011;24384;51.988;4.644;2023-07-28T00:54:32;16.60;;;8.45;;
38629;SDS011;24384;51.988;4.644;2023-07-28T00:56:57;24.90;;;9.00;;
38629;SDS011;24384;51.988;4.644;2023-07-28T00:59:24;18.60;;;9.73;;
38629;SDS011;24384;51.988;4.644;2023-07-28T01:01:49;15.63;;;9.65;;
38629;SDS011;24384;51.988;4.644;2023-07-28T01:04:14;20.05;;;10.48;;
38629;SDS011;24384;51.988;4.644;2023-07-28T01:10:00;25.20;;;11.63;;
38629;SDS011;24384;51.988;4.644;2023-07-28T01:12:28;18.52;;;10.43;;
38629;SDS011;24384;51.988;4.644;2023-07-28T01:14:53;19.83;;;9.32;;
38629;SDS011;24384;51.988;4.644;2023-07-28T01:17:18;27.35;;;10.45;;
38629;SDS011;24384;51.988;4.644;2023-07-28T01:19:45;24.92;;;10.60;;
38629;SDS011;24384;51.988;4.644;2023-07-28T01:24:42;18.40;;;8.63;;
38629;SDS011;24384;51.988;4.644;2023-07-28T01:27:17;26.55;;;10.77;;
38629;SDS011;24384;51.988;4.644;2023-07-28T01:29:43;22.02;;;8.80;;
38629;SDS011;24384;51.988;4.644;2023-07-28T01:32:10;23.05;;;9.73;;
38629;SDS011;24384;51.988;4.644;2023-07-28T01:34:36;21.63;;;9.35;;
38629;SDS011;24384;51.988;4.644;2023-07-28T01:37:01;21.92;;;10.07;;
38629;SDS011;24384;51.988;4.644;2023-07-28T01:39:27;19.45;;;10.13;;
38629;SDS011;24384;51.988;4.644;2023-07-28T01:41:52;18.98;;;8.68;;
38629;SDS011;24384;51.988;4.644;2023-07-28T01:44:17;19.65;;;10.10;;
38629;SDS011;24384;51.988;4.644;2023-07-28T01:46:43;19.73;;;10.10;;
38629;SDS011;24384;51.988;4.644;2023-07-28T01:49:09;29.77;;;11.35;;
38629;SDS011;24384;51.988;4.644;2023-07-28T01:51:34;24.65;;;9.57;;
38629;SDS011;24384;51.988;4.644;2023-07-28T01:53:59;20.73;;;10.30;;
38629;SDS011;24384;51.988;4.644;2023-07-28T01:56:24;19.92;;;9.30;;
38629;SDS011;24384;51.988;4.644;2023-07-28T01:58:51;30.55;;;10.57;;
38629;SDS011;24384;51.988;4.644;2023-07-28T02:01:16;23.98;;;9.23;;
38629;SDS011;24384;51.988;4.644;2023-07-28T02:03:41;25.67;;;9.65;;
38629;SDS011;24384;51.988;4.644;2023-07-28T02:06:07;20.10;;;9.38;;
38629;SDS011;24384;51.988;4.644;2023-07-28T02:08:32;23.48;;;9.98;;
38629;SDS011;24384;51.988;4.644;2023-07-28T02:10:58;20.10;;;9.75;;
38629;SDS011;24384;51.988;4.644;2023-07-28T02:13:24;21.33;;;10.30;;
38629;SDS011;24384;51.988;4.644;2023-07-28T02:15:49;18.55;;;9.55;;
38629;SDS011;24384;51.988;4.644;2023-07-28T02:18:14;23.30;;;9.45;;
38629;SDS011;24384;51.988;4.644;2023-07-28T02:20:39;19.40;;;9.48;;
38629;SDS011;24384;51.988;4.644;2023-07-28T02:23:06;25.30;;;10.85;;
38629;SDS011;24384;51.988;4.644;2023-07-28T02:25:31;27.25;;;10.38;;
38629;SDS011;24384;51.988;4.644;2023-07-28T02:27:57;35.35;;;12.93;;
38629;SDS011;24384;51.988;4.644;2023-07-28T02:30:22;29.80;;;10.75;;
38629;SDS011;24384;51.988;4.644;2023-07-28T02:32:47;25.02;;;10.18;;
38629;SDS011;24384;51.988;4.644;2023-07-28T02:35:14;24.58;;;11.23;;
38629;SDS011;24384;51.988;4.644;2023-07-28T02:37:39;19.58;;;10.60;;
38629;SDS011;24384;51.988;4.644;2023-07-28T02:40:05;22.23;;;12.20;;
38629;SDS011;24384;51.988;4.644;2023-07-28T02:42:31;27.73;;;11.85;;
38629;SDS011;24384;51.988;4.644;2023-07-28T02:44:58;22.02;;;10.85;;
38629;SDS011;24384;51.988;4.644;2023-07-28T02:47:24;28.75;;;12.77;;
38629;SDS011;24384;51.988;4.644;2023-07-28T02:49:49;20.50;;;9.98;;
38629;SDS011;24384;51.988;4.644;2023-07-28T02:52:14;24.83;;;11.02;;
38629;SDS011;24384;51.988;4.644;2023-07-28T02:54:39;24.55;;;10.98;;
38629;SDS011;24384;51.988;4.644;2023-07-28T02:57:05;25.83;;;10.90;;
38629;SDS011;24384;51.988;4.644;2023-07-28T02:59:30;20.40;;;10.30;;
38629;SDS011;24384;51.988;4.644;2023-07-28T03:01:56;23.98;;;10.55;;
38629;SDS011;24384;51.988;4.644;2023-07-28T03:04:23;21.50;;;9.48;;
38629;SDS011;24384;51.988;4.644;2023-07-28T03:06:48;23.20;;;11.50;;
38629;SDS011;24384;51.988;4.644;2023-07-28T03:09:14;26.27;;;11.07;;
38629;SDS011;24384;51.988;4.644;2023-07-28T03:11:40;29.02;;;13.10;;
38629;SDS011;24384;51.988;4.644;2023-07-28T03:14:07;24.23;;;10.68;;
38629;SDS011;24384;51.988;4.644;2023-07-28T03:16:32;25.42;;;11.38;;
38629;SDS011;24384;51.988;4.644;2023-07-28T03:18:57;26.73;;;10.45;;
38629;SDS011;24384;51.988;4.644;2023-07-28T03:21:23;29.15;;;11.25;;
38629;SDS011;24384;51.988;4.644;2023-07-28T03:23:48;22.83;;;10.80;;
38629;SDS011;24384;51.988;4.644;2023-07-28T03:26:13;23.15;;;10.98;;
38629;SDS011;24384;51.988;4.644;2023-07-28T03:28:38;22.63;;;10.98;;
38629;SDS011;24384;51.988;4.644;2023-07-28T03:31:04;23.17;;;11.52;;
38629;SDS011;24384;51.988;4.644;2023-07-28T03:33:29;23.10;;;11.52;;
38629;SDS011;24384;51.988;4.644;2023-07-28T03:35:54;27.05;;;11.65;;
38629;SDS011;24384;51.988;4.644;2023-07-28T03:38:19;31.08;;;12.48;;
38629;SDS011;24384;51.988;4.644;2023-07-28T03:40:45;30.38;;;12.00;;
38629;SDS011;24384;51.988;4.644;2023-07-28T03:43:10;23.73;;;11.57;;
38629;SDS011;24384;51.988;4.644;2023-07-28T03:45:39;28.15;;;12.63;;
38629;SDS011;24384;51.988;4.644;2023-07-28T03:48:04;28.08;;;13.27;;
38629;SDS011;24384;51.988;4.644;2023-07-28T03:50:29;21.70;;;12.60;;
38629;SDS011;24384;51.988;4.644;2023-07-28T03:52:55;27.98;;;12.07;;
38629;SDS011;24384;51.988;4.644;2023-07-28T03:55:21;28.33;;;13.02;;
38629;SDS011;24384;51.988;4.644;2023-07-28T03:57:46;27.33;;;12.13;;
38629;SDS011;24384;51.988;4.644;2023-07-28T04:00:11;26.52;;;11.32;;
38629;SDS011;24384;51.988;4.644;2023-07-28T04:02:38;29.05;;;12.13;;
38629;SDS011;24384;51.988;4.644;2023-07-28T04:05:04;25.65;;;12.07;;
38629;SDS011;24384;51.988;4.644;2023-07-28T04:07:29;28.25;;;13.00;;
38629;SDS011;24384;51.988;4.644;2023-07-28T04:09:55;27.10;;;13.10;;
38629;SDS011;24384;51.988;4.644;2023-07-28T04:12:20;17.67;;;11.68;;
38629;SDS011;24384;51.988;4.644;2023-07-28T04:14:45;21.23;;;11.10;;
38629;SDS011;24384;51.988;4.644;2023-07-28T04:17:10;24.42;;;12.23;;
38629;SDS011;24384;51.988;4.644;2023-07-28T04:19:36;23.52;;;12.50;;
38629;SDS011;24384;51.988;4.644;2023-07-28T04:22:02;27.33;;;11.57;;
38629;SDS011;24384;51.988;4.644;2023-07-28T04:24:28;23.33;;;11.38;;
38629;SDS011;24384;51.988;4.644;2023-07-28T04:26:55;22.77;;;10.93;;
38629;SDS011;24384;51.988;4.644;2023-07-28T04:29:20;28.88;;;12.40;;
38629;SDS011;24384;51.988;4.644;2023-07-28T04:31:46;21.65;;;11.45;;
38629;SDS011;24384;51.988;4.644;2023-07-28T04:34:11;21.05;;;12.75;;
38629;SDS011;24384;51.988;4.644;2023-07-28T04:36:36;23.10;;;12.50;;
38629;SDS011;24384;51.988;4.644;2023-07-28T04:39:01;23.40;;;12.07;;
38629;SDS011;24384;51.988;4.644;2023-07-28T04:41:27;23.17;;;11.82;;
38629;SDS011;24384;51.988;4.644;2023-07-28T04:43:52;24.33;;;11.70;;
38629;SDS011;24384;51.988;4.644;2023-07-28T04:46:17;23.45;;;11.93;;
38629;SDS011;24384;51.988;4.644;2023-07-28T04:48:43;24.15;;;10.77;;
38629;SDS011;24384;51.988;4.644;2023-07-28T04:51:09;26.92;;;11.40;;
38629;SDS011;24384;51.988;4.644;2023-07-28T04:53:35;25.25;;;11.68;;
38629;SDS011;24384;51.988;4.644;2023-07-28T04:56:00;25.83;;;11.23;;
38629;SDS011;24384;51.988;4.644;2023-07-28T04:58:25;26.83;;;12.40;;
38629;SDS011;24384;51.988;4.644;2023-07-28T05:00:51;29.50;;;11.13;;
38629;SDS011;24384;51.988;4.644;2023-07-28T05:03:16;21.63;;;11.60;;
38629;SDS011;24384;51.988;4.644;2023-07-28T05:05:44;26.25;;;12.10;;
38629;SDS011;24384;51.988;4.644;2023-07-28T05:08:10;21.13;;;10.80;;
38629;SDS011;24384;51.988;4.644;2023-07-28T05:10:36;25.30;;;11.98;;
38629;SDS011;24384;51.988;4.644;2023-07-28T05:13:01;23.17;;;11.38;;
38629;SDS011;24384;51.988;4.644;2023-07-28T05:15:29;26.63;;;11.45;;
38629;SDS011;24384;51.988;4.644;2023-07-28T05:17:54;26.10;;;11.00;;
38629;SDS011;24384;51.988;4.644;2023-07-28T05:20:19;25.25;;;11.63;;
38629;SDS011;24384;51.988;4.644;2023-07-28T05:22:45;23.02;;;10.80;;
38629;SDS011;24384;51.988;4.644;2023-07-28T05:25:10;23.90;;;11.25;;
38629;SDS011;24384;51.988;4.644;2023-07-28T05:27:35;22.85;;;12.80;;
38629;SDS011;24384;51.988;4.644;2023-07-28T05:30:00;26.58;;;10.88;;
38629;SDS011;24384;51.988;4.644;2023-07-28T05:32:25;25.83;;;11.27;;
38629;SDS011;24384;51.988;4.644;2023-07-28T05:34:51;26.88;;;10.80;;
38629;SDS011;24384;51.988;4.644;2023-07-28T05:37:16;23.85;;;10.75;;
38629;SDS011;24384;51.988;4.644;2023-07-28T05:39:43;19.13;;;9.43;;
38629;SDS011;24384;51.988;4.644;2023-07-28T05:42:10;26.02;;;11.35;;
38629;SDS011;24384;51.988;4.644;2023-07-28T05:44:35;21.33;;;10.13;;
38629;SDS011;24384;51.988;4.644;2023-07-28T05:47:01;22.75;;;10.15;;
38629;SDS011;24384;51.988;4.644;2023-07-28T05:49:26;24.38;;;10.43;;
38629;SDS011;24384;51.988;4.644;2023-07-28T05:51:51;27.33;;;13.20;;
38629;SDS011;24384;51.988;4.644;2023-07-28T05:54:17;25.40;;;11.77;;
38629;SDS011;24384;51.988;4.644;2023-07-28T05:56:42;23.58;;;10.73;;
38629;SDS011;24384;51.988;4.644;2023-07-28T05:59:08;19.05;;;10.45;;
38629;SDS011;24384;51.988;4.644;2023-07-28T06:01:33;25.73;;;12.60;;
38629;SDS011;24384;51.988;4.644;2023-07-28T06:03:59;20.35;;;11.77;;
38629;SDS011;24384;51.988;4.644;2023-07-28T06:06:24;26.38;;;13.20;;
38629;SDS011;24384;51.988;4.644;2023-07-28T06:08:51;20.85;;;10.23;;
38629;SDS011;24384;51.988;4.644;2023-07-28T06:11:17;17.33;;;9.75;;
38629;SDS011;24384;51.988;4.644;2023-07-28T06:13:42;15.88;;;9.05;;
38629;SDS011;24384;51.988;4.644;2023-07-28T06:16:07;17.88;;;9.40;;
38629;SDS011;24384;51.988;4.644;2023-07-28T06:18:33;15.20;;;9.10;;
38629;SDS011;24384;51.988;4.644;2023-07-28T06:20:58;13.77;;;10.32;;
38629;SDS011;24384;51.988;4.644;2023-07-28T06:23:23;16.70;;;9.70;;
38629;SDS011;24384;51.988;4.644;2023-07-28T06:25:49;11.90;;;8.15;;
38629;SDS011;24384;51.988;4.644;2023-07-28T06:28:14;17.13;;;9.57;;
38629;SDS011;24384;51.988;4.644;2023-07-28T06:30:39;13.88;;;9.25;;
38629;SDS011;24384;51.988;4.644;2023-07-28T06:33:08;15.55;;;8.25;;
38629;SDS011;24384;51.988;4.644;2023-07-28T06:35:34;12.63;;;7.32;;
38629;SDS011;24384;51.988;4.644;2023-07-28T06:38:00;18.65;;;7.45;;
38629;SDS011;24384;51.988;4.644;2023-07-28T06:40:26;8.68;;;6.32;;
38629;SDS011;24384;51.988;4.644;2023-07-28T06:42:51;14.45;;;7.78;;
38629;SDS011;24384;51.988;4.644;2023-07-28T06:45:16;12.65;;;6.63;;
38629;SDS011;24384;51.988;4.644;2023-07-28T06:47:42;11.15;;;6.50;;
38629;SDS011;24384;51.988;4.644;2023-07-28T06:50:08;10.75;;;6.18;;
38629;SDS011;24384;51.988;4.644;2023-07-28T06:52:33;15.40;;;7.93;;
38629;SDS011;24384;51.988;4.644;2023-07-28T06:54:59;9.40;;;7.13;;
38629;SDS011;24384;51.988;4.644;2023-07-28T06:57:24;12.07;;;7.00;;
38629;SDS011;24384;51.988;4.644;2023-07-28T06:59:49;12.77;;;6.90;;
38629;SDS011;24384;51.988;4.644;2023-07-28T07:02:15;12.48;;;7.28;;
38629;SDS011;24384;51.988;4.644;2023-07-28T07:04:40;14.10;;;7.70;;
38629;SDS011;24384;51.988;4.644;2023-07-28T07:07:06;10.63;;;7.95;;
38629;SDS011;24384;51.988;4.644;2023-07-28T07:09:31;12.90;;;7.88;;
38629;SDS011;24384;51.988;4.644;2023-07-28T07:11:56;12.88;;;7.22;;
38629;SDS011;24384;51.988;4.644;2023-07-28T07:14:22;11.98;;;7.47;;
38629;SDS011;24384;51.988;4.644;2023-07-28T07:16:48;14.80;;;7.07;;
38629;SDS011;24384;51.988;4.644;2023-07-28T07:19:14;13.20;;;7.93;;
38629;SDS011;24384;51.988;4.644;2023-07-28T07:21:40;13.52;;;6.97;;
38629;SDS011;24384;51.988;4.644;2023-07-28T07:24:06;13.10;;;7.95;;
38629;SDS011;24384;51.988;4.644;2023-07-28T07:26:31;12.50;;;8.20;;
38629;SDS011;24384;51.988;4.644;2023-07-28T07:28:56;12.60;;;6.72;;
38629;SDS011;24384;51.988;4.644;2023-07-28T07:31:22;12.77;;;7.75;;
38629;SDS011;24384;51.988;4.644;2023-07-28T07:33:48;14.57;;;7.90;;
38629;SDS011;24384;51.988;4.644;2023-07-28T07:36:14;15.65;;;6.90;;
38629;SDS011;24384;51.988;4.644;2023-07-28T07:38:41;11.32;;;6.05;;
38629;SDS011;24384;51.988;4.644;2023-07-28T07:41:07;10.73;;;6.93;;
38629;SDS011;24384;51.988;4.644;2023-07-28T07:43:33;14.95;;;7.65;;
38629;SDS011;24384;51.988;4.644;2023-07-28T07:45:59;15.40;;;7.55;;
38629;SDS011;24384;51.988;4.644;2023-07-28T07:48:24;12.23;;;7.05;;
38629;SDS011;24384;51.988;4.644;2023-07-28T07:50:51;14.75;;;7.57;;
38629;SDS011;24384;51.988;4.644;2023-07-28T07:53:16;15.77;;;6.88;;
38629;SDS011;24384;51.988;4.644;2023-07-28T07:55:42;11.45;;;7.53;;
38629;SDS011;24384;51.988;4.644;2023-07-28T07:58:08;15.15;;;6.78;;
38629;SDS011;24384;51.988;4.644;2023-07-28T08:00:34;12.65;;;6.90;;
38629;SDS011;24384;51.988;4.644;2023-07-28T08:03:01;11.88;;;5.72;;
38629;SDS011;24384;51.988;4.644;2023-07-28T08:05:27;8.40;;;5.65;;
38629;SDS011;24384;51.988;4.644;2023-07-28T08:07:53;10.52;;;5.28;;
38629;SDS011;24384;51.988;4.644;2023-07-28T08:10:19;12.00;;;5.85;;
38629;SDS011;24384;51.988;4.644;2023-07-28T08:12:45;15.00;;;6.82;;
38629;SDS011;24384;51.988;4.644;2023-07-28T08:15:12;9.10;;;5.35;;
38629;SDS011;24384;51.988;4.644;2023-07-28T08:17:37;12.05;;;5.75;;
38629;SDS011;24384;51.988;4.644;2023-07-28T08:20:03;15.77;;;6.57;;
38629;SDS011;24384;51.988;4.644;2023-07-28T08:22:30;12.95;;;5.38;;
38629;SDS011;24384;51.988;4.644;2023-07-28T08:24:55;14.48;;;5.57;;
38629;SDS011;24384;51.988;4.644;2023-07-28T08:27:21;13.23;;;5.50;;
38629;SDS011;24384;51.988;4.644;2023-07-28T08:29:46;11.43;;;5.60;;
38629;SDS011;24384;51.988;4.644;2023-07-28T08:32:11;9.75;;;5.97;;
38629;SDS011;24384;51.988;4.644;2023-07-28T08:34:37;9.30;;;4.85;;
38629;SDS011;24384;51.988;4.644;2023-07-28T08:37:03;10.93;;;5.53;;
38629;SDS011;24384;51.988;4.644;2023-07-28T08:39:28;13.75;;;6.32;;
38629;SDS011;24384;51.988;4.644;2023-07-28T08:41:57;11.00;;;5.82;;
38629;SDS011;24384;51.988;4.644;2023-07-28T08:44:24;10.35;;;5.70;;
38629;SDS011;24384;51.988;4.644;2023-07-28T08:46:50;14.38;;;6.45;;
38629;SDS011;24384;51.988;4.644;2023-07-28T08:49:16;13.07;;;6.78;;
38629;SDS011;24384;51.988;4.644;2023-07-28T08:51:41;14.40;;;6.38;;
38629;SDS011;24384;51.988;4.644;2023-07-28T08:54:07;15.32;;;8.00;;
38629;SDS011;24384;51.988;4.644;2023-07-28T08:56:32;10.15;;;6.53;;
38629;SDS011;24384;51.988;4.644;2023-07-28T08:58:58;13.50;;;6.15;;
38629;SDS011;24384;51.988;4.644;2023-07-28T09:01:24;16.52;;;5.72;;
38629;SDS011;24384;51.988;4.644;2023-07-28T09:03:50;13.85;;;6.30;;
38629;SDS011;24384;51.988;4.644;2023-07-28T09:06:15;10.95;;;5.57;;
38629;SDS011;24384;51.988;4.644;2023-07-28T09:08:40;10.82;;;6.43;;
38629;SDS011;24384;51.988;4.644;2023-07-28T09:11:09;9.20;;;6.10;;
38629;SDS011;24384;51.988;4.644;2023-07-28T09:13:40;12.65;;;6.40;;
38629;SDS011;24384;51.988;4.644;2023-07-28T09:16:16;10.52;;;6.03;;
38629;SDS011;24384;51.988;4.644;2023-07-28T09:18:42;13.00;;;6.38;;
38629;SDS011;24384;51.988;4.644;2023-07-28T09:21:15;10.45;;;5.70;;
38629;SDS011;24384;51.988;4.644;2023-07-28T09:23:46;9.73;;;5.72;;
38629;SDS011;24384;51.988;4.644;2023-07-28T09:26:12;10.60;;;6.00;;
38629;SDS011;24384;51.988;4.644;2023-07-28T09:28:37;12.82;;;5.68;;
38629;SDS011;24384;51.988;4.644;2023-07-28T09:31:04;13.02;;;6.18;;
38629;SDS011;24384;51.988;4.644;2023-07-28T09:33:30;14.00;;;5.25;;
38629;SDS011;24384;51.988;4.644;2023-07-28T09:35:57;15.18;;;5.88;;
38629;SDS011;24384;51.988;4.644;2023-07-28T09:38:33;13.05;;;6.22;;
38629;SDS011;24384;51.988;4.644;2023-07-28T09:41:02;12.48;;;5.25;;
38629;SDS011;24384;51.988;4.644;2023-07-28T09:43:31;14.70;;;6.00;;
38629;SDS011;24384;51.988;4.644;2023-07-28T09:45:56;11.45;;;5.53;;
38629;SDS011;24384;51.988;4.644;2023-07-28T09:48:21;10.65;;;5.20;;
38629;SDS011;24384;51.988;4.644;2023-07-28T09:50:49;10.30;;;5.65;;
38629;SDS011;24384;51.988;4.644;2023-07-28T09:53:16;8.48;;;5.30;;
38629;SDS011;24384;51.988;4.644;2023-07-28T09:55:42;11.63;;;6.43;;
38629;SDS011;24384;51.988;4.644;2023-07-28T09:58:09;8.73;;;5.53;;
38629;SDS011;24384;51.988;4.644;2023-07-28T10:00:37;14.48;;;5.75;;
38629;SDS011;24384;51.988;4.644;2023-07-28T10:03:03;14.68;;;5.85;;
38629;SDS011;24384;51.988;4.644;2023-07-28T10:05:29;15.23;;;6.10;;
38629;SDS011;24384;51.988;4.644;2023-07-28T10:07:56;12.20;;;6.57;;
38629;SDS011;24384;51.988;4.644;2023-07-28T10:10:22;13.60;;;6.45;;
38629;SDS011;24384;51.988;4.644;2023-07-28T10:12:49;14.30;;;6.53;;
38629;SDS011;24384;51.988;4.644;2023-07-28T10:15:17;11.70;;;6.13;;
38629;SDS011;24384;51.988;4.644;2023-07-28T10:17:45;13.10;;;6.03;;
38629;SDS011;24384;51.988;4.644;2023-07-28T10:20:29;11.50;;;6.53;;
38629;SDS011;24384;51.988;4.644;2023-07-28T10:23:03;9.85;;;6.20;;
38629;SDS011;24384;51.988;4.644;2023-07-28T10:25:28;13.02;;;6.03;;
38629;SDS011;24384;51.988;4.644;2023-07-28T10:27:58;13.68;;;6.78;;
38629;SDS011;24384;51.988;4.644;2023-07-28T10:30:23;15.23;;;6.60;;
38629;SDS011;24384;51.988;4.644;2023-07-28T10:32:49;9.85;;;5.38;;
38629;SDS011;24384;51.988;4.644;2023-07-28T10:37:46;10.10;;;5.05;;
38629;SDS011;24384;51.988;4.644;2023-07-28T10:40:28;11.02;;;4.47;;
38629;SDS011;24384;51.988;4.644;2023-07-28T10:43:02;21.02;;;5.38;;
38629;SDS011;24384;51.988;4.644;2023-07-28T10:45:29;9.43;;;4.50;;
38629;SDS011;24384;51.988;4.644;2023-07-28T10:47:56;11.85;;;5.35;;
38629;SDS011;24384;51.988;4.644;2023-07-28T10:50:26;12.27;;;4.07;;
38629;SDS011;24384;51.988;4.644;2023-07-28T10:52:52;12.27;;;4.30;;
38629;SDS011;24384;51.988;4.644;2023-07-28T10:55:20;8.52;;;4.10;;
38629;SDS011;24384;51.988;4.644;2023-07-28T10:57:50;8.25;;;4.10;;
38629;SDS011;24384;51.988;4.644;2023-07-28T11:00:18;11.27;;;4.00;;
38629;SDS011;24384;51.988;4.644;2023-07-28T11:02:52;7.07;;;3.53;;
38629;SDS011;24384;51.988;4.644;2023-07-28T11:07:47;8.63;;;4.25;;
38629;SDS011;24384;51.988;4.644;2023-07-28T11:10:13;12.45;;;4.03;;
38629;SDS011;24384;51.988;4.644;2023-07-28T11:12:42;8.23;;;3.75;;
38629;SDS011;24384;51.988;4.644;2023-07-28T11:15:09;7.53;;;4.00;;
38629;SDS011;24384;51.988;4.644;2023-07-28T11:17:39;7.68;;;4.03;;
38629;SDS011;24384;51.988;4.644;2023-07-28T11:20:18;12.07;;;3.88;;
38629;SDS011;24384;51.988;4.644;2023-07-28T11:22:46;10.82;;;3.72;;
38629;SDS011;24384;51.988;4.644;2023-07-28T11:25:16;10.10;;;3.80;;
38629;SDS011;24384;51.988;4.644;2023-07-28T11:27:42;6.45;;;3.80;;
38629;SDS011;24384;51.988;4.644;2023-07-28T11:30:08;8.88;;;3.60;;
38629;SDS011;24384;51.988;4.644;2023-07-28T11:32:35;10.77;;;4.03;;
38629;SDS011;24384;51.988;4.644;2023-07-28T11:35:05;9.77;;;4.57;;
38629;SDS011;24384;51.988;4.644;2023-07-28T11:37:31;7.15;;;3.20;;
38629;SDS011;24384;51.988;4.644;2023-07-28T11:39:59;6.25;;;3.28;;
38629;SDS011;24384;51.988;4.644;2023-07-28T11:42:26;8.93;;;3.13;;
38629;SDS011;24384;51.988;4.644;2023-07-28T11:44:53;10.82;;;3.55;;
38629;SDS011;24384;51.988;4.644;2023-07-28T11:47:18;10.32;;;3.53;;
38629;SDS011;24384;51.988;4.644;2023-07-28T11:49:50;9.20;;;3.78;;
38629;SDS011;24384;51.988;4.644;2023-07-28T11:52:16;5.78;;;3.05;;
38629;SDS011;24384;51.988;4.644;2023-07-28T11:54:41;4.88;;;2.85;;
38629;SDS011;24384;51.988;4.644;2023-07-28T11:57:09;6.35;;;3.55;;
38629;SDS011;24384;51.988;4.644;2023-07-28T11:59:34;9.50;;;4.38;;
38629;SDS011;24384;51.988;4.644;2023-07-28T12:02:00;7.68;;;3.50;;
38629;SDS011;24384;51.988;4.644;2023-07-28T12:04:31;9.13;;;3.97;;
38629;SDS011;24384;51.988;4.644;2023-07-28T12:07:02;10.63;;;3.90;;
38629;SDS011;24384;51.988;4.644;2023-07-28T12:09:32;8.20;;;3.53;;
38629;SDS011;24384;51.988;4.644;2023-07-28T12:12:10;8.63;;;4.50;;
38629;SDS011;24384;51.988;4.644;2023-07-28T12:14:35;10.73;;;3.97;;
38629;SDS011;24384;51.988;4.644;2023-07-28T12:17:00;8.98;;;5.25;;
38629;SDS011;24384;51.988;4.644;2023-07-28T12:19:29;11.05;;;4.97;;
38629;SDS011;24384;51.988;4.644;2023-07-28T12:21:54;11.13;;;4.80;;
38629;SDS011;24384;51.988;4.644;2023-07-28T12:24:19;12.80;;;5.82;;
38629;SDS011;24384;51.988;4.644;2023-07-28T12:26:45;11.70;;;5.50;;
38629;SDS011;24384;51.988;4.644;2023-07-28T12:29:12;8.63;;;5.18;;
38629;SDS011;24384;51.988;4.644;2023-07-28T12:31:38;10.95;;;4.95;;
38629;SDS011;24384;51.988;4.644;2023-07-28T12:34:03;11.40;;;6.43;;
38629;SDS011;24384;51.988;4.644;2023-07-28T12:36:29;13.30;;;5.80;;
38629;SDS011;24384;51.988;4.644;2023-07-28T12:38:54;13.77;;;5.57;;
38629;SDS011;24384;51.988;4.644;2023-07-28T12:41:19;11.15;;;5.30;;
38629;SDS011;24384;51.988;4.644;2023-07-28T12:43:45;9.30;;;5.50;;
38629;SDS011;24384;51.988;4.644;2023-07-28T12:46:10;12.55;;;6.30;;
38629;SDS011;24384;51.988;4.644;2023-07-28T12:48:35;9.27;;;5.95;;
38629;SDS011;24384;51.988;4.644;2023-07-28T12:51:01;11.85;;;6.90;;
38629;SDS011;24384;51.988;4.644;2023-07-28T12:53:26;14.85;;;7.22;;
38629;SDS011;24384;51.988;4.644;2023-07-28T12:55:51;12.63;;;7.05;;
38629;SDS011;24384;51.988;4.644;2023-07-28T12:58:16;13.57;;;7.57;;
38629;SDS011;24384;51.988;4.644;2023-07-28T13:00:42;13.60;;;9.07;;
38629;SDS011;24384;51.988;4.644;2023-07-28T13:03:07;14.30;;;9.27;;
38629;SDS011;24384;51.988;4.644;2023-07-28T13:05:33;17.60;;;10.02;;
38629;SDS011;24384;51.988;4.644;2023-07-28T13:07:59;16.60;;;10.07;;
38629;SDS011;24384;51.988;4.644;2023-07-28T13:10:25;17.50;;;10.43;;
38629;SDS011;24384;51.988;4.644;2023-07-28T13:12:50;12.13;;;9.25;;
38629;SDS011;24384;51.988;4.644;2023-07-28T13:15:15;13.82;;;10.18;;
38629;SDS011;24384;51.988;4.644;2023-07-28T13:28:01;10.30;;;7.95;;
38629;SDS011;24384;51.988;4.644;2023-07-28T13:30:27;10.52;;;7.95;;
38629;SDS011;24384;51.988;4.644;2023-07-28T13:32:52;10.50;;;8.40;;
38629;SDS011;24384;51.988;4.644;2023-07-28T13:35:17;9.80;;;8.23;;
38629;SDS011;24384;51.988;4.644;2023-07-28T13:37:43;13.75;;;8.18;;
38629;SDS011;24384;51.988;4.644;2023-07-28T13:40:08;13.23;;;9.80;;
38629;SDS011;24384;51.988;4.644;2023-07-28T13:42:33;11.63;;;10.40;;
38629;SDS011;24384;51.988;4.644;2023-07-28T13:44:58;17.65;;;13.13;;
38629;SDS011;24384;51.988;4.644;2023-07-28T13:47:25;15.38;;;12.10;;
38629;SDS011;24384;51.988;4.644;2023-07-28T13:49:50;14.45;;;11.02;;
38629;SDS011;24384;51.988;4.644;2023-07-28T13:52:16;13.30;;;10.43;;
38629;SDS011;24384;51.988;4.644;2023-07-28T13:54:42;14.10;;;10.52;;
38629;SDS011;24384;51.988;4.644;2023-07-28T13:57:09;12.13;;;10.70;;
38629;SDS011;24384;51.988;4.644;2023-07-28T13:59:35;15.13;;;9.80;;
38629;SDS011;24384;51.988;4.644;2023-07-28T14:02:00;13.73;;;9.27;;
38629;SDS011;24384;51.988;4.644;2023-07-28T14:04:25;12.60;;;9.93;;
38629;SDS011;24384;51.988;4.644;2023-07-28T14:06:59;11.77;;;8.75;;
38629;SDS011;24384;51.988;4.644;2023-07-28T14:09:24;11.27;;;8.75;;
38629;SDS011;24384;51.988;4.644;2023-07-28T14:11:49;9.57;;;6.82;;
38629;SDS011;24384;51.988;4.644;2023-07-28T14:14:14;9.52;;;6.43;;
38629;SDS011;24384;51.988;4.644;2023-07-28T14:16:40;8.55;;;6.35;;
38629;SDS011;24384;51.988;4.644;2023-07-28T14:19:07;10.75;;;6.55;;
38629;SDS011;24384;51.988;4.644;2023-07-28T14:21:33;11.45;;;7.07;;
38629;SDS011;24384;51.988;4.644;2023-07-28T14:23:58;13.90;;;7.53;;
38629;SDS011;24384;51.988;4.644;2023-07-28T14:26:23;8.88;;;6.65;;
38629;SDS011;24384;51.988;4.644;2023-07-28T14:28:48;8.55;;;6.07;;
38629;SDS011;24384;51.988;4.644;2023-07-28T14:31:14;9.25;;;6.45;;
38629;SDS011;24384;51.988;4.644;2023-07-28T14:33:39;15.55;;;6.40;;
38629;SDS011;24384;51.988;4.644;2023-07-28T14:36:04;9.00;;;7.15;;
38629;SDS011;24384;51.988;4.644;2023-07-28T14:38:29;10.52;;;6.70;;
38629;SDS011;24384;51.988;4.644;2023-07-28T14:40:55;7.55;;;6.05;;
38629;SDS011;24384;51.988;4.644;2023-07-28T14:43:20;9.02;;;7.05;;
38629;SDS011;24384;51.988;4.644;2023-07-28T14:45:45;9.90;;;6.88;;